Time;durP1;ratioP1;P1;durP2;ratioP2;P2;SDS_P1;SDS_P2;PMS_P1;PMS_P2;Temp;Humidity;BMP_temperature;BMP_pressure;BME280_temperature;BME280_humidity;BME280_pressure;Samples;Min_cycle;Max_cycle;Signal;HPM_P1;HPM_P2
2021/05/12 00:02:25;;;;;;;42.47;13.82;;;;;;;32.13;60.83;100732.19;5056647;28;65166;-42
2021/05/12 00:04:55;;;;;;;52.83;11.57;;;;;;;32.21;60.19;100734.56;5057056;28;70393;-43
2021/05/12 00:07:25;;;;;;;38.25;12.13;;;;;;;32.24;59.59;100734.94;5052716;28;65273;-43
2021/05/12 00:09:56;;;;;;;34.97;11.35;;;;;;;32.29;60.17;100745.09;5060537;28;69424;-43
2021/05/12 00:12:26;;;;;;;30.33;10.60;;;;;;;32.22;60.77;100747.88;5052869;28;64847;-40
2021/05/12 00:14:57;;;;;;;33.22;9.35;;;;;;;32.27;60.73;100749.91;5056493;28;70007;-39
2021/05/12 00:17:28;;;;;;;31.23;9.38;;;;;;;32.42;59.81;100744.03;5059889;28;66430;-39
2021/05/12 00:20:00;;;;;;;28.88;9.98;;;;;;;32.46;59.59;100740.66;5060014;28;69263;-38
2021/05/12 00:22:38;;;;;;;30.88;9.88;;;;;;;32.56;59.13;100741.94;5058232;28;65153;-39
2021/05/12 00:25:11;;;;;;;25.88;9.77;;;;;;;32.32;58.84;100703.06;5064369;28;70280;-40
2021/05/12 00:27:41;;;;;;;;;;;;;;;32.53;59.99;100745.13;5058978;28;66343;-39
2021/05/12 00:30:15;;;;;;;23.40;9.07;;;;;;;32.55;58.56;100743.03;5061921;28;68997;-39
2021/05/12 00:32:45;;;;;;;17.77;8.48;;;;;;;32.65;58.47;100745.97;5059636;27;65457;-39
2021/05/12 00:35:17;;;;;;;23.17;8.80;;;;;;;32.67;58.24;100754.72;5053106;28;70094;-39
2021/05/12 00:37:48;;;;;;;19.45;8.63;;;;;;;32.52;58.19;100740.78;5058959;28;65994;-40
2021/05/12 00:40:22;;;;;;;20.65;9.10;;;;;;;32.66;57.88;100759.31;5055935;28;69714;-40
2021/05/12 00:42:56;;;;;;;20.67;9.15;;;;;;;32.61;58.13;100744.78;5055412;28;66554;-40
2021/05/12 00:45:27;;;;;;;14.68;8.73;;;;;;;32.57;57.98;100743.59;5052428;28;69972;-39
2021/05/12 00:47:59;;;;;;;14.02;7.93;;;;;;;32.64;57.51;100755.19;5055667;28;65857;-40
2021/05/12 00:50:35;;;;;;;18.33;8.18;;;;;;;32.73;57.35;100761.91;5057258;28;70032;-40
2021/05/12 00:53:07;;;;;;;15.10;7.47;;;;;;;32.72;57.30;100752.13;5047594;28;66157;-40
2021/05/12 00:55:43;;;;;;;13.48;7.63;;;;;;;32.76;56.94;100747.03;5053653;28;70408;-41
2021/05/12 00:58:19;;;;;;;18.35;7.63;;;;;;;32.68;56.95;100730.03;5058663;28;65576;-40
2021/05/12 01:00:50;;;;;;;10.50;7.13;;;;;;;32.75;56.84;100740.78;5052361;28;70304;-40
2021/05/12 01:03:22;;;;;;;10.50;7.10;;;;;;;32.75;56.88;100735.34;5053021;28;65145;-40
2021/05/12 01:05:57;;;;;;;15.15;6.88;;;;;;;32.83;56.65;100736.88;5052835;28;70434;-39
2021/05/12 01:08:30;;;;;;;20.60;7.68;;;;;;;32.79;56.53;100736.53;5050857;28;64467;-39
2021/05/12 01:11:02;;;;;;;12.88;7.60;;;;;;;32.83;56.48;100743.13;5051893;28;69388;-39
2021/05/12 01:13:36;;;;;;;15.18;7.10;;;;;;;32.84;56.38;100733.09;5037530;28;65717;-40
2021/05/12 01:16:10;;;;;;;21.20;7.70;;;;;;;32.89;55.99;100742.19;5054579;28;69167;-39
2021/05/12 01:18:42;;;;;;;11.63;7.10;;;;;;;32.93;56.23;100751.53;5052778;28;66356;-39
2021/05/12 01:21:14;;;;;;;9.10;6.57;;;;;;;32.93;55.99;100754.25;5052261;28;68937;-39
2021/05/12 01:23:48;;;;;;;10.60;6.20;;;;;;;32.71;56.12;100728.75;5054355;28;65421;-39
2021/05/12 01:26:23;;;;;;;11.95;6.63;;;;;;;32.69;55.65;100720.81;5034370;28;68855;-39
2021/05/12 01:28:56;;;;;;;9.45;6.05;;;;;;;32.92;55.83;100758.00;5049655;28;66522;-38
2021/05/12 01:31:42;;;;;;;10.02;6.35;;;;;;;32.97;55.79;100764.63;5068243;27;70270;-39
2021/05/12 01:34:17;;;;;;;8.43;5.90;;;;;;;32.99;55.76;100760.63;5047766;28;66250;-40
2021/05/12 01:36:50;;;;;;;8.45;6.53;;;;;;;33.06;55.53;100764.06;5055358;28;69986;-39
2021/05/12 01:39:23;;;;;;;9.65;5.53;;;;;;;33.09;55.45;100773.63;5049407;28;66355;-39
2021/05/12 01:42:00;;;;;;;9.73;6.10;;;;;;;33.06;55.27;100768.66;5053397;28;71163;-39
2021/05/12 01:44:33;;;;;;;7.07;5.32;;;;;;;32.98;55.02;100739.94;5053425;28;67053;-39
2021/05/12 01:47:05;;;;;;;9.95;5.72;;;;;;;33.06;55.03;100757.78;5050351;28;70497;-39
2021/05/12 01:49:37;;;;;;;7.95;5.35;;;;;;;33.20;55.01;100775.50;5035161;28;65319;-39
2021/05/12 01:52:13;;;;;;;6.10;5.50;;;;;;;33.23;54.96;100775.03;5048038;28;70302;-39
2021/05/12 01:54:47;;;;;;;8.70;5.25;;;;;;;33.25;54.77;100772.91;5052824;28;65051;-39
2021/05/12 01:57:20;;;;;;;10.00;5.82;;;;;;;33.27;54.76;100776.22;5054217;28;68942;-40
2021/05/12 01:59:57;;;;;;;7.30;5.25;;;;;;;33.30;54.72;100773.00;5056629;27;67015;-39
2021/05/12 02:02:31;;;;;;;7.22;5.05;;;;;;;33.30;54.21;100780.34;5052297;28;69315;-39
2021/05/12 02:05:26;;;;;;;7.15;5.43;;;;;;;33.09;54.61;100738.28;5054050;28;65324;-39
2021/05/12 02:08:05;;;;;;;8.35;5.50;;;;;;;33.15;54.27;100730.03;5053916;28;69346;-39
2021/05/12 02:10:39;;;;;;;6.43;5.25;;;;;;;33.29;54.34;100751.50;5035266;28;66600;-39
2021/05/12 02:13:16;;;;;;;6.70;5.68;;;;;;;33.50;54.15;100780.75;5051470;28;70433;-39
2021/05/12 02:15:56;;;;;;;5.90;5.15;;;;;;;33.54;54.08;100772.97;5060190;27;66533;-39
2021/05/12 02:18:28;;;;;;;6.18;5.32;;;;;;;33.57;53.91;100772.47;5053483;28;69910;-39
2021/05/12 02:21:02;;;;;;;7.20;5.07;;;;;;;33.50;53.78;100760.91;5055434;28;66304;-38
2021/05/12 02:23:39;;;;;;;11.32;5.00;;;;;;;33.37;53.67;100735.63;5053148;28;70301;-39
2021/05/12 02:26:14;;;;;;;6.90;4.88;;;;;;;33.58;53.66;100768.72;5056115;28;65571;-40
2021/05/12 02:28:45;;;;;;;8.13;5.20;;;;;;;33.65;53.62;100772.09;5051488;28;70244;-40
2021/05/12 02:31:25;;;;;;;5.50;5.05;;;;;;;33.42;53.50;100739.53;5054510;28;66251;-39
2021/05/12 02:33:58;;;;;;;6.15;4.93;;;;;;;33.68;53.44;100781.69;5051977;28;69950;-39
2021/05/12 02:36:36;;;;;;;5.70;4.53;;;;;;;33.73;53.28;100782.59;5053724;28;65884;-39
2021/05/12 02:39:09;;;;;;;6.10;4.55;;;;;;;33.70;53.11;100772.22;5055283;28;69800;-39
2021/05/12 02:41:44;;;;;;;5.50;4.68;;;;;;;33.78;52.98;100781.88;5053265;28;68170;-39
2021/05/12 02:44:26;;;;;;;12.77;5.13;;;;;;;33.81;53.05;100770.50;5038121;28;69861;-40
2021/05/12 02:47:00;;;;;;;10.35;5.13;;;;;;;33.85;52.85;100770.84;5051509;28;66713;-39
2021/05/12 02:49:33;;;;;;;6.07;5.18;;;;;;;33.92;52.52;100771.53;5055085;28;70213;-40
2021/05/12 02:52:06;;;;;;;6.47;4.40;;;;;;;33.95;52.63;100769.13;5040056;28;66100;-39
2021/05/12 02:54:39;;;;;;;6.90;5.30;;;;;;;33.97;52.51;100767.00;5054907;28;68032;-40
2021/05/12 02:57:12;;;;;;;5.75;5.25;;;;;;;34.00;52.45;100774.69;5068038;27;66004;-40
2021/05/12 02:59:45;;;;;;;7.18;4.38;;;;;;;34.01;52.56;100770.88;5032892;28;70493;-38
2021/05/12 03:02:22;;;;;;;5.93;4.68;;;;;;;33.98;52.75;100768.66;5021861;28;65079;-40
2021/05/12 03:05:01;;;;;;;6.20;5.07;;;;;;;34.07;52.30;100780.00;5061000;28;70033;-39
2021/05/12 03:07:36;;;;;;;5.72;4.70;;;;;;;34.11;52.30;100778.44;5046931;28;66422;-39
2021/05/12 03:10:12;;;;;;;4.80;4.40;;;;;;;34.15;51.96;100776.88;5064114;28;69683;-40
2021/05/12 03:12:45;;;;;;;5.93;4.50;;;;;;;34.18;52.06;100779.09;5045408;28;66894;-40
2021/05/12 03:15:23;;;;;;;8.60;5.20;;;;;;;34.19;51.84;100772.59;5052827;28;70053;-40
2021/05/12 03:17:59;;;;;;;5.78;5.35;;;;;;;34.22;51.90;100788.44;5051299;28;65691;-39
2021/05/12 03:20:34;;;;;;;6.72;6.07;;;;;;;34.20;51.74;100767.97;5058789;28;69443;-39
2021/05/12 03:23:10;;;;;;;6.80;5.45;;;;;;;34.31;51.85;100780.69;5055066;28;65469;-39
2021/05/12 03:25:42;;;;;;;7.45;5.88;;;;;;;34.20;51.88;100760.63;5054221;28;69449;-39
2021/05/12 03:28:13;;;;;;;;;;;;;;;34.25;52.05;100777.06;5035065;28;66391;-39
2021/05/12 03:30:45;;;;;;;7.28;5.63;;;;;;;34.38;51.87;100781.38;5051627;28;68728;-39
2021/05/12 03:33:20;;;;;;;9.20;5.22;;;;;;;34.43;51.62;100769.72;5045419;28;65719;-39
2021/05/12 03:35:51;;;;;;;;;;;;;;;34.42;51.43;100766.19;5045915;28;69538;-39
2021/05/12 03:38:29;;;;;;;6.10;5.47;;;;;;;34.48;51.14;100764.38;5053365;28;66020;-38
2021/05/12 03:41:04;;;;;;;6.05;5.53;;;;;;;34.51;51.33;100758.41;5046427;28;69230;-39
2021/05/12 03:43:37;;;;;;;5.78;5.25;;;;;;;34.39;51.21;100736.72;5054161;28;65569;-40
2021/05/12 03:46:08;;;;;;;;;;;;;;;34.48;51.40;100761.63;5052271;28;68920;-38
2021/05/12 03:48:40;;;;;;;5.57;4.97;;;;;;;34.56;51.04;100744.91;5053824;28;66653;-39
2021/05/12 03:51:12;;;;;;;9.90;5.40;;;;;;;34.60;51.26;100756.97;5039174;28;70332;-39
2021/05/12 03:53:51;;;;;;;6.40;5.60;;;;;;;34.58;51.09;100756.41;5047443;28;65362;-39
2021/05/12 03:56:24;;;;;;;5.35;4.93;;;;;;;34.60;51.18;100748.81;5046102;28;69861;-40
2021/05/12 03:58:56;;;;;;;5.28;4.80;;;;;;;34.62;50.60;100746.63;5054834;28;65305;-39
2021/05/12 04:01:27;;;;;;;;;;;;;;;34.62;51.11;100754.81;5053593;28;70440;-39
2021/05/12 04:04:05;;;;;;;7.28;4.88;;;;;;;34.63;51.23;100731.97;5055300;27;66721;-39
2021/05/12 04:06:41;;;;;;;9.43;5.30;;;;;;;34.62;51.23;100733.00;5056271;28;69336;-39
2021/05/12 04:09:13;;;;;;;9.00;5.63;;;;;;;34.69;50.77;100744.56;5061757;27;65481;-38
2021/05/12 04:11:51;;;;;;;5.80;5.40;;;;;;;34.54;51.15;100702.63;5057239;28;70206;-38
2021/05/12 04:14:27;;;;;;;5.10;4.55;;;;;;;34.42;50.93;100679.03;5057752;28;65353;-39
2021/05/12 04:16:59;;;;;;;5.63;5.13;;;;;;;34.79;50.84;100734.91;5075327;28;69882;-38
2021/05/12 04:19:31;;;;;;;5.22;4.72;;;;;;;34.79;50.58;100729.44;5061589;28;66334;-39
2021/05/12 04:22:04;;;;;;;6.38;5.07;;;;;;;34.75;50.97;100720.13;5053512;28;69474;-39
2021/05/12 04:24:39;;;;;;;5.13;4.65;;;;;;;34.86;50.66;100719.19;5066696;28;66205;-39
2021/05/12 04:27:12;;;;;;;14.85;5.45;;;;;;;34.78;50.50;100706.00;5073327;27;69881;-39
2021/05/12 04:29:47;;;;;;;5.60;5.10;;;;;;;34.89;50.73;100713.25;5056210;28;65268;-38
2021/05/12 04:32:19;;;;;;;7.22;4.85;;;;;;;34.92;50.30;100705.38;5056959;28;69894;-39
2021/05/12 04:34:51;;;;;;;11.13;4.85;;;;;;;34.94;50.27;100696.97;5056847;28;66718;-38
2021/05/12 04:37:23;;;;;;;6.72;4.85;;;;;;;34.93;50.18;100690.66;5059511;28;70201;-39
2021/05/12 04:39:55;;;;;;;8.60;5.13;;;;;;;35.03;50.09;100705.53;5049896;28;66137;-39
2021/05/12 04:42:26;;;;;;;;;;;;;;;35.00;50.30;100706.84;5060751;27;70412;-38
2021/05/12 04:44:58;;;;;;;14.05;4.88;;;;;;;35.08;50.16;100692.81;5052792;28;66168;-38
2021/05/12 04:47:29;;;;;;;;;;;;;;;35.07;49.98;100693.88;5067590;27;70076;-39
2021/05/12 04:50:01;;;;;;;5.82;4.72;;;;;;;35.18;49.78;100691.28;5062809;27;66719;-39
2021/05/12 04:52:32;;;;;;;;;;;;;;;35.14;49.75;100683.63;5055527;28;69986;-40
2021/05/12 04:55:06;;;;;;;7.65;4.03;;;;;;;35.22;50.06;100686.97;5054285;28;66584;-38
2021/05/12 04:57:39;;;;;;;5.43;4.10;;;;;;;35.16;49.92;100671.63;5056186;28;69563;-39
2021/05/12 05:00:13;;;;;;;5.45;4.65;;;;;;;35.21;49.57;100663.50;5069357;27;66200;-39
2021/05/12 05:02:45;;;;;;;10.85;4.60;;;;;;;35.22;49.95;100665.16;5054462;28;70077;-39
2021/05/12 05:05:24;;;;;;;4.55;4.25;;;;;;;35.21;49.43;100655.31;5054811;28;65972;-39
2021/05/12 05:07:56;;;;;;;10.35;4.72;;;;;;;35.24;49.59;100657.53;5057248;28;69894;-39
2021/05/12 05:10:31;;;;;;;6.03;4.55;;;;;;;35.29;49.71;100652.16;5059196;27;66146;-38
2021/05/12 05:13:04;;;;;;;4.82;4.38;;;;;;;35.27;49.90;100648.84;5053812;28;69549;-39
2021/05/12 05:15:36;;;;;;;7.43;5.10;;;;;;;35.26;49.86;100644.47;5055469;28;65350;-39
2021/05/12 05:18:08;;;;;;;9.73;5.30;;;;;;;35.30;49.88;100640.16;5045517;28;70280;-39
2021/05/12 05:20:40;;;;;;;5.97;5.38;;;;;;;35.32;49.65;100638.00;5054445;28;66172;-39
2021/05/12 05:23:13;;;;;;;;;;;;;;;35.29;49.61;100633.06;5042122;28;70537;-38
2021/05/12 05:25:50;;;;;;;7.53;5.47;;;;;;;35.42;49.63;100621.75;5054427;28;66105;-39
2021/05/12 05:28:23;;;;;;;9.77;5.90;;;;;;;35.41;49.58;100619.25;5054264;28;70175;-41
2021/05/12 05:30:57;;;;;;;21.42;16.92;;;;;;;35.39;49.69;100621.44;5068305;28;65905;-39
2021/05/12 05:33:48;;;;;;;21.77;19.00;;;;;;;35.28;49.92;100598.69;5052514;28;69932;-39
2021/05/12 05:36:40;;;;;;;25.60;17.23;;;;;;;35.36;49.48;100600.97;5054801;28;66109;-40
2021/05/12 05:39:37;;;;;;;22.80;19.87;;;;;;;35.22;49.41;100577.91;5058434;28;70288;-39
2021/05/12 05:42:27;;;;;;;38.80;26.17;;;;;;;35.41;49.67;100595.56;5044872;27;66060;-38
2021/05/12 05:45:19;;;;;;;68.82;40.85;;;;;;;35.43;49.83;100590.66;5040972;28;70292;-39
2021/05/12 05:48:11;;;;;;;62.17;37.00;;;;;;;35.48;49.52;100587.97;5053566;28;66740;-39
2021/05/12 05:51:01;;;;;;;128.30;66.15;;;;;;;35.46;49.72;100568.31;5049445;28;70633;-39
2021/05/12 05:54:08;;;;;;;133.32;78.95;;;;;;;35.50;49.56;100547.63;5014185;28;66541;-39
2021/05/12 05:57:05;;;;;;;119.88;69.13;;;;;;;35.50;49.63;100547.63;5047868;28;70008;-39
2021/05/12 05:59:56;;;;;;;148.35;88.53;;;;;;;35.60;49.19;100546.91;5052511;28;65145;-38
2021/05/12 06:02:43;;;;;;;142.27;85.47;;;;;;;35.63;49.20;100534.66;5059888;28;69982;-39
2021/05/12 06:05:35;;;;;;;146.25;84.57;;;;;;;35.65;49.44;100527.03;5051727;28;65614;-38
2021/05/12 06:08:25;;;;;;;149.30;84.00;;;;;;;35.67;49.18;100530.34;5050272;28;69045;-38
2021/05/12 06:11:15;;;;;;;142.10;86.10;;;;;;;35.65;49.11;100510.66;5045744;28;66308;-38
2021/05/12 06:14:10;;;;;;;142.75;79.35;;;;;;;35.72;49.08;100511.28;5059858;28;69519;-39
2021/05/12 06:17:01;;;;;;;133.23;80.63;;;;;;;35.70;48.97;100497.88;5050986;28;66079;-38
2021/05/12 06:19:51;;;;;;;132.63;81.30;;;;;;;35.77;49.25;100497.63;5045866;28;69615;-40
2021/05/12 06:22:45;;;;;;;136.70;78.05;;;;;;;35.83;48.60;100485.69;5051495;28;66237;-40
2021/05/12 06:25:36;;;;;;;132.90;79.97;;;;;;;35.74;48.80;100470.88;5052155;28;69037;-38
2021/05/12 06:28:26;;;;;;;131.68;74.80;;;;;;;35.83;49.40;100488.44;5045067;28;65704;-38
2021/05/12 06:31:17;;;;;;;125.55;76.65;;;;;;;35.87;48.82;100473.16;5048701;28;69613;-39
2021/05/12 06:34:07;;;;;;;139.90;83.63;;;;;;;35.89;49.07;100473.72;5055205;28;65867;-39
2021/05/12 06:36:58;;;;;;;145.07;85.50;;;;;;;35.90;48.56;100469.88;5050892;28;70809;-39
2021/05/12 06:39:50;;;;;;;128.60;79.78;;;;;;;35.88;48.57;100472.06;5054889;28;66369;-39
2021/05/12 06:42:24;;;;;;;135.02;79.85;;;;;;;35.83;49.06;100452.09;5056974;28;70158;-38
2021/05/12 06:45:00;;;;;;;130.05;76.90;;;;;;;35.89;48.67;100462.81;5065154;27;65868;-38
2021/05/12 06:47:32;;;;;;;126.65;75.13;;;;;;;35.90;48.78;100458.16;5057685;28;69122;-38
2021/05/12 06:50:06;;;;;;;125.22;76.82;;;;;;;35.90;48.96;100442.59;5063728;28;66316;-39
2021/05/12 06:52:38;;;;;;;126.47;75.93;;;;;;;35.95;48.61;100433.63;5066307;28;70260;-38
2021/05/12 06:55:13;;;;;;;129.23;73.53;;;;;;;35.92;48.84;100423.25;5054745;28;65955;-38
2021/05/12 06:57:46;;;;;;;119.55;72.82;;;;;;;35.93;48.91;100424.88;5046748;28;69607;-40
2021/05/12 07:00:21;;;;;;;115.45;71.13;;;;;;;35.99;48.92;100413.69;5059573;28;66945;-38
2021/05/12 07:02:55;;;;;;;122.22;70.65;;;;;;;36.00;48.22;100398.97;5067715;28;71816;-39
2021/05/12 07:05:30;;;;;;;122.32;71.97;;;;;;;35.97;48.89;100388.59;5051523;28;66163;-40
2021/05/12 07:08:07;;;;;;;124.13;72.05;;;;;;;35.95;48.56;100379.03;5059401;28;69353;-38
2021/05/12 07:10:39;;;;;;;111.47;68.95;;;;;;;35.98;48.42;100383.97;5050185;27;65169;-39
2021/05/12 07:13:12;;;;;;;112.88;68.22;;;;;;;36.02;48.96;100394.09;5051622;28;70004;-39
2021/05/12 07:15:45;;;;;;;112.85;69.00;;;;;;;36.02;48.80;100394.09;5056076;28;65926;-39
2021/05/12 07:18:18;;;;;;;112.72;68.07;;;;;;;36.03;48.28;100389.44;5052026;28;70076;-38
2021/05/12 07:20:53;;;;;;;108.32;68.50;;;;;;;36.06;48.54;100399.03;5053170;28;65911;-39
2021/05/12 07:23:28;;;;;;;130.32;72.43;;;;;;;36.07;48.79;100400.66;5058527;27;69497;-42
2021/05/12 07:26:03;;;;;;;125.32;74.13;;;;;;;36.08;48.64;100405.88;5058358;28;66322;-40
2021/05/12 07:28:37;;;;;;;119.25;72.57;;;;;;;36.05;48.42;100400.06;5058484;28;69981;-38
2021/05/12 07:31:09;;;;;;;118.95;70.07;;;;;;;36.03;48.52;100387.53;5070166;27;65400;-39
2021/05/12 07:33:44;;;;;;;130.00;71.43;;;;;;;36.08;48.46;100388.66;5057360;28;69880;-40
2021/05/12 07:36:17;;;;;;;114.40;68.30;;;;;;;35.96;48.55;100359.63;5069092;28;65334;-39
2021/05/12 07:38:51;;;;;;;117.38;67.10;;;;;;;36.00;48.45;100385.34;5041081;28;69938;-39
2021/05/12 07:41:23;;;;;;;112.82;64.57;;;;;;;36.02;48.75;100394.09;5057853;28;65306;-40
2021/05/12 07:43:56;;;;;;;109.20;63.00;;;;;;;36.07;48.73;100387.03;5058537;28;70301;-40
2021/05/12 07:46:33;;;;;;;113.03;62.83;;;;;;;36.05;48.52;100380.97;5053204;28;66240;-39
2021/05/12 07:49:07;;;;;;;106.30;60.10;;;;;;;36.07;48.88;100376.09;5057502;28;70239;-39
2021/05/12 07:51:44;;;;;;;101.15;58.15;;;;;;;36.00;49.04;100382.59;5055378;28;65336;-39
2021/05/12 07:54:16;;;;;;;98.93;58.25;;;;;;;36.04;48.55;100380.16;5055751;28;69945;-39
2021/05/12 07:56:49;;;;;;;107.47;56.40;;;;;;;35.81;49.22;100332.31;5072961;28;65974;-39
2021/05/12 07:59:24;;;;;;;99.20;55.95;;;;;;;36.01;48.58;100346.00;5062134;27;69409;-38
2021/05/12 08:02:01;;;;;;;95.50;53.53;;;;;;;35.97;49.31;100352.31;5055205;27;66087;-38
2021/05/12 08:04:53;;;;;;;87.50;52.17;;;;;;;36.00;49.21;100360.75;5054972;28;69944;-39
2021/05/12 08:07:26;;;;;;;91.55;50.80;;;;;;;35.99;49.05;100369.22;5056998;28;65578;-38
2021/05/12 08:10:01;;;;;;;80.22;48.35;;;;;;;35.96;48.98;100376.03;5052242;28;68981;-40
2021/05/12 08:12:35;;;;;;;86.97;47.17;;;;;;;36.00;48.73;100388.06;5051056;28;65211;-39
2021/05/12 08:15:08;;;;;;;81.28;44.92;;;;;;;35.98;49.03;100390.22;5057442;28;69755;-38
2021/05/12 08:17:41;;;;;;;78.38;44.33;;;;;;;35.94;49.07;100394.59;5066674;27;65359;-38
2021/05/12 08:20:13;;;;;;;84.75;43.38;;;;;;;35.91;49.09;100397.84;5054463;28;69750;-39
2021/05/12 08:22:45;;;;;;;77.30;43.40;;;;;;;35.90;49.12;100398.94;5062539;28;66065;-38
2021/05/12 08:25:22;;;;;;;75.63;42.03;;;;;;;35.86;49.73;100384.19;5074433;27;69484;-38
2021/05/12 08:27:54;;;;;;;81.25;41.33;;;;;;;35.87;49.23;100377.63;5064210;28;65181;-38
2021/05/12 08:30:34;;;;;;;76.13;42.15;;;;;;;35.80;49.97;100379.78;5071461;28;69874;-38
2021/05/12 08:33:07;;;;;;;68.93;40.03;;;;;;;35.74;49.92;100375.38;5065601;28;66155;-38
2021/05/12 08:35:42;;;;;;;70.63;38.85;;;;;;;35.75;49.68;100363.41;5057522;27;70537;-38
2021/05/12 08:38:24;;;;;;;799.97;725.47;;;;;;;35.62;49.80;100322.94;5048785;28;66927;-38
2021/05/12 08:41:00;;;;;;;;;;;;;;;35.42;50.06;100294.47;5061858;28;69721;-39
2021/05/12 08:43:40;;;;;;;976.53;812.53;;;;;;;35.29;49.81;100268.47;5064933;27;65582;-38
2021/05/12 08:46:15;;;;;;;1044.55;834.00;;;;;;;35.51;50.00;100319.31;5049936;28;70348;-38
2021/05/12 08:48:51;;;;;;;953.42;752.90;;;;;;;35.53;49.97;100350.72;5049991;28;65979;-38
2021/05/12 08:51:24;;;;;;;987.90;754.90;;;;;;;35.46;50.35;100371.94;5050597;28;70115;-38
2021/05/12 08:53:56;;;;;;;898.92;677.92;;;;;;;35.56;50.34;100403.94;5048983;28;65525;-39
2021/05/12 08:56:28;;;;;;;812.10;610.03;;;;;;;35.53;50.44;100399.81;5052132;28;69077;-39
2021/05/12 08:59:02;;;;;;;685.92;505.63;;;;;;;35.50;50.58;100389.44;5046636;28;66281;-38
2021/05/12 09:01:34;;;;;;;549.05;388.38;;;;;;;35.45;50.49;100372.22;5055847;28;69094;-39
2021/05/12 09:04:07;;;;;;;423.08;269.52;;;;;;;35.50;50.31;100373.06;5046354;28;66181;-39
2021/05/12 09:06:39;;;;;;;241.45;147.95;;;;;;;35.51;50.13;100360.25;5055050;28;69957;-40
2021/05/12 09:09:11;;;;;;;;;;;;;;;35.46;50.28;100341.13;5068060;28;66241;-39
2021/05/12 09:11:43;;;;;;;86.07;60.72;;;;;;;35.50;50.35;100326.69;5061479;27;70018;-38
2021/05/12 09:14:36;;;;;;;66.22;46.67;;;;;;;35.44;50.33;100335.09;5061630;28;65805;-40
2021/05/12 09:17:07;;;;;;;67.43;38.92;;;;;;;35.14;50.65;100310.13;5056032;27;70155;-38
2021/05/12 09:19:40;;;;;;;57.83;36.47;;;;;;;35.40;50.69;100378.44;5055684;28;66038;-38
2021/05/12 09:22:11;;;;;;;51.47;34.63;;;;;;;35.36;50.69;100383.63;5065525;28;69172;-39
2021/05/12 09:24:42;;;;;;;52.35;32.17;;;;;;;35.34;51.15;100388.50;5063597;27;65702;-39
2021/05/12 09:27:17;;;;;;;45.05;30.35;;;;;;;35.32;50.65;100392.56;5055978;28;70165;-39
2021/05/12 09:30:03;;;;;;;40.03;29.60;;;;;;;35.31;50.73;100405.38;5056164;28;66505;-40
2021/05/12 09:32:45;;;;;;;38.55;28.27;;;;;;;35.25;51.05;100402.91;5055132;28;70605;-39
2021/05/12 09:35:22;;;;;;;45.33;27.35;;;;;;;35.23;51.16;100394.97;5053862;28;65274;-38
2021/05/12 09:37:54;;;;;;;39.00;26.80;;;;;;;35.20;50.86;100379.13;5056027;28;69082;-39
2021/05/12 09:40:26;;;;;;;38.58;25.92;;;;;;;35.18;51.18;100364.13;5056912;28;66403;-38
2021/05/12 09:43:01;;;;;;;33.92;24.73;;;;;;;34.94;51.02;100331.78;5055176;28;70793;-39
2021/05/12 09:45:38;;;;;;;41.70;25.13;;;;;;;35.13;51.35;100368.47;5058077;28;65935;-40
2021/05/12 09:48:12;;;;;;;36.13;24.88;;;;;;;35.03;51.41;100360.19;5044767;28;70620;-40
2021/05/12 09:50:43;;;;;;;41.75;25.30;;;;;;;35.08;51.05;100378.50;5052089;28;65991;-39
2021/05/12 09:53:15;;;;;;;38.20;23.73;;;;;;;35.12;51.24;100394.06;5055243;28;68929;-38
2021/05/12 09:55:50;;;;;;;33.72;23.70;;;;;;;35.10;51.47;100396.25;5052657;28;66451;-39
2021/05/12 09:58:21;;;;;;;31.40;21.83;;;;;;;35.03;51.66;100395.59;5051589;28;69667;-38
2021/05/12 10:00:52;;;;;;;31.35;22.00;;;;;;;35.06;51.47;100425.09;5055874;28;66362;-40
2021/05/12 10:03:25;;;;;;;33.75;21.90;;;;;;;34.72;51.57;100366.47;5051587;28;69351;-39
2021/05/12 10:06:02;;;;;;;30.60;21.25;;;;;;;35.03;51.31;100405.69;5052329;28;65483;-39
2021/05/12 10:08:35;;;;;;;32.30;21.20;;;;;;;35.03;50.97;100383.88;5048124;28;70164;-38
2021/05/12 10:11:10;;;;;;;29.50;21.38;;;;;;;34.74;51.30;100347.94;5052778;28;65271;-39
2021/05/12 10:13:41;;;;;;;26.83;20.67;;;;;;;34.99;51.54;100397.19;5051245;28;70018;-38
2021/05/12 10:16:12;;;;;;;23.95;20.08;;;;;;;34.95;51.58;100389.81;5053937;28;65235;-39
2021/05/12 10:18:43;;;;;;;;;;;;;;;34.85;51.90;100391.38;5053960;28;70325;-38
2021/05/12 10:21:15;;;;;;;28.65;19.63;;;;;;;34.83;51.58;100374.47;5053153;28;67055;-39
2021/05/12 10:23:47;;;;;;;26.05;19.33;;;;;;;34.92;51.49;100408.31;5049177;28;69611;-39
2021/05/12 10:26:18;;;;;;;30.52;18.83;;;;;;;34.90;51.70;100415.94;5046278;28;65682;-38
2021/05/12 10:28:53;;;;;;;32.70;19.30;;;;;;;34.91;51.35;100420.31;5060176;28;69935;-39
2021/05/12 10:31:24;;;;;;;22.10;18.23;;;;;;;34.86;51.93;100420.25;5055701;28;66525;-39
2021/05/12 10:33:56;;;;;;;30.47;17.57;;;;;;;34.87;51.50;100418.34;5052724;28;69941;-38
2021/05/12 10:36:29;;;;;;;27.05;18.33;;;;;;;34.55;52.13;100378.25;5051712;28;66302;-39
2021/05/12 10:39:04;;;;;;;25.95;18.35;;;;;;;34.59;51.30;100384.84;5052968;28;68838;-39
2021/05/12 10:41:49;;;;;;;28.27;17.25;;;;;;;34.81;52.15;100431.13;5038632;28;65892;-39
2021/05/12 10:44:54;;;;;;;34.33;16.70;;;;;;;34.77;52.32;100432.72;5050016;28;70345;-39
2021/05/12 10:47:37;;;;;;;30.60;17.60;;;;;;;34.74;53.06;100435.13;5034536;28;65777;-39
2021/05/12 10:50:08;;;;;;;43.42;17.50;;;;;;;34.75;52.72;100434.06;5053503;28;70447;-38
2021/05/12 10:53:18;;;;;;;35.10;16.55;;;;;;;34.72;52.80;100431.84;5055548;28;66386;-39
2021/05/12 10:55:59;;;;;;;33.25;15.63;;;;;;;34.70;53.78;100429.38;5056361;28;70796;-39
2021/05/12 10:58:48;;;;;;;43.28;16.92;;;;;;;34.38;54.96;100399.31;5058093;28;65205;-40
2021/05/12 11:01:18;;;;;;;43.33;15.70;;;;;;;34.32;56.47;100433.00;5055816;28;69674;-40
2021/05/12 11:03:50;;;;;;;32.67;15.07;;;;;;;34.18;56.93;100438.00;5056845;28;65967;-38
2021/05/12 11:06:26;;;;;;;41.40;14.80;;;;;;;34.03;57.71;100431.28;5053008;28;68941;-39
2021/05/12 11:09:08;;;;;;;29.33;14.75;;;;;;;33.93;57.74;100436.56;5060656;28;65950;-39
2021/05/12 11:11:39;;;;;;;28.90;14.38;;;;;;;33.90;56.98;100436.25;5047698;28;70165;-39
2021/05/12 11:14:25;;;;;;;20.47;14.73;;;;;;;33.77;58.52;100438.28;5062787;27;66626;-38
2021/05/12 11:17:18;;;;;;;17.58;14.55;;;;;;;33.77;59.01;100441.00;5054682;28;70553;-38
2021/05/12 11:19:53;;;;;;;23.45;15.15;;;;;;;33.79;58.37;100440.72;5055801;28;66545;-39
2021/05/12 11:25:25;;;;;;;23.10;15.25;;;;;;;33.91;58.49;100433.31;5052894;28;65522;-38
2021/05/12 11:33:32;;;;;;;34.10;15.18;;;;;;;33.63;58.08;100371.72;5054550;28;69489;-39
2021/05/12 11:36:21;;;;;;;31.98;14.32;;;;;;;34.14;57.66;100462.19;5059341;28;65697;-38
2021/05/12 11:38:55;;;;;;;26.10;13.48;;;;;;;33.91;58.73;100456.97;5051823;28;69940;-37
2021/05/12 11:41:25;;;;;;;24.40;13.07;;;;;;;33.67;58.78;100442.75;5058555;28;64659;-38
2021/05/12 11:44:00;;;;;;;23.23;13.27;;;;;;;33.50;58.86;100427.25;5054532;28;69901;-37
2021/05/12 11:46:41;;;;;;;18.67;12.35;;;;;;;33.70;59.13;100455.84;5048584;28;65738;-38
2021/05/12 11:49:13;;;;;;;25.88;13.15;;;;;;;33.69;58.65;100446.88;5057233;28;69956;-38
2021/05/12 11:51:51;;;;;;;16.75;12.60;;;;;;;33.75;58.53;100456.75;5054634;28;65960;-39
2021/05/12 11:54:25;;;;;;;17.77;12.82;;;;;;;33.64;58.60;100443.25;5053767;28;69105;-37
2021/05/12 11:56:59;;;;;;;15.13;11.73;;;;;;;33.73;58.74;100458.06;5057090;28;66458;-38
2021/05/12 11:59:34;;;;;;;20.05;11.95;;;;;;;33.44;58.68;100402.97;5058429;28;69975;-38
2021/05/12 12:02:09;;;;;;;19.52;11.70;;;;;;;33.48;59.47;100434.81;5054819;28;66796;-38
2021/05/12 12:07:21;;;;;;;16.38;11.70;;;;;;;33.66;57.64;100480.00;5057096;28;66311;-40
2021/05/12 12:10:06;;;;;;;14.10;10.75;;;;;;;33.33;56.44;100438.13;5058883;28;69734;-39